Time;durP1;ratioP1;P1;durP2;ratioP2;P2;SDS_P1;SDS_P2;PMS_P1;PMS_P2;Temp;Humidity;BMP_temperature;BMP_pressure;BME280_temperature;BME280_humidity;BME280_pressure;Samples;Min_cycle;Max_cycle;Signal;HPM_P1;HPM_P2
2022/02/11 00:01:03;;;;;;;9.50;7.73;;;8.60;99.90;;;;;;5012037;28;20241;-57
2022/02/11 00:08:59;;;;;;;10.20;7.87;;;8.40;99.90;;;;;;5012564;28;20156;-57
2022/02/11 00:11:40;;;;;;;11.63;7.67;;;8.30;99.90;;;;;;5011969;28;20173;-59
2022/02/11 00:14:08;;;;;;;12.40;8.00;;;8.30;99.90;;;;;;5011940;28;20349;-57
2022/02/11 00:16:35;;;;;;;9.30;7.17;;;8.20;99.90;;;;;;5010544;28;20252;-59
2022/02/11 00:19:01;;;;;;;9.47;7.10;;;8.10;99.90;;;;;;5012081;28;20517;-57
2022/02/11 00:21:28;;;;;;;7.07;6.20;;;8.00;99.90;;;;;;5011383;28;20172;-58
2022/02/11 00:23:54;;;;;;;11.30;6.43;;;7.80;99.90;;;;;;5011965;28;20728;-57
2022/02/11 00:26:20;;;;;;;12.03;6.77;;;7.70;99.90;;;;;;5011890;28;20255;-59
2022/02/11 00:29:44;;;;;;;7.57;6.27;;;7.60;99.90;;;;;;4994336;28;20608;-58
2022/02/11 00:34:28;;;;;;;9.53;6.73;;;7.60;99.90;;;;;;5011680;28;20569;-60
2022/02/11 00:37:07;;;;;;;9.07;7.10;;;7.60;99.90;;;;;;5010359;28;20558;-58
2022/02/11 01:04:14;;;;;;;9.13;6.07;;;8.40;99.90;;;;;;4913263;29;20226;-57
2022/02/11 01:06:41;;;;;;;7.73;6.40;;;8.50;99.90;;;;;;4935292;29;20206;-58
2022/02/11 01:09:11;;;;;;;8.97;6.63;;;8.50;99.90;;;;;;4930046;29;20572;-56
2022/02/11 01:11:47;;;;;;;8.70;6.77;;;8.50;99.90;;;;;;4941937;29;20183;-58
2022/02/11 01:14:12;;;;;;;7.37;6.03;;;8.60;99.90;;;;;;4936085;29;20202;-59
2022/02/11 01:16:44;;;;;;;7.73;6.37;;;8.60;99.90;;;;;;4933146;29;20191;-57
2022/02/11 01:19:24;;;;;;;7.20;6.07;;;8.60;99.90;;;;;;4918890;29;20182;-59
2022/02/11 01:22:09;;;;;;;7.73;6.23;;;8.50;99.90;;;;;;4961766;28;20206;-59
2022/02/11 01:30:38;;;;;;;8.90;6.83;;;8.50;99.90;;;;;;4981729;28;20650;-59
2022/02/11 01:33:26;;;;;;;9.00;6.90;;;8.40;99.90;;;;;;5014075;28;20184;-57
2022/02/11 01:57:39;;;;;;;10.53;7.07;;;8.50;99.90;;;;;;4954257;29;20174;-58
2022/02/11 02:13:17;;;;;;;10.33;7.60;;;8.20;99.90;;;;;;4986173;28;20243;-57
2022/02/11 02:43:28;;;;;;;10.40;8.90;;;7.70;99.90;;;;;;5012385;28;20202;-55
2022/02/11 02:58:59;;;;;;;11.37;8.90;;;8.00;99.90;;;;;;5013871;28;20188;-59
2022/02/11 03:01:45;;;;;;;9.37;8.33;;;8.00;99.90;;;;;;5013499;28;20163;-60
2022/02/11 04:56:55;;;;;;;10.73;9.37;;;7.70;99.90;;;;;;4916216;29;20207;-54
2022/02/11 04:59:37;;;;;;;12.83;10.60;;;7.70;99.90;;;;;;4933155;28;20258;-59
2022/02/11 05:02:05;;;;;;;11.43;9.40;;;7.60;99.90;;;;;;4992091;28;20181;-57
2022/02/11 05:04:31;;;;;;;11.63;10.13;;;7.50;99.90;;;;;;4995422;28;20219;-53
2022/02/11 05:06:58;;;;;;;13.93;10.57;;;7.40;99.90;;;;;;4995795;28;20197;-57
2022/02/11 05:09:23;;;;;;;14.40;10.37;;;7.40;99.90;;;;;;5003676;28;20185;-57
2022/02/11 05:11:49;;;;;;;13.63;10.57;;;7.30;99.90;;;;;;5014902;28;20255;-58
2022/02/11 05:14:16;;;;;;;13.93;11.13;;;7.40;99.90;;;;;;5007175;28;20211;-58
2022/02/11 05:16:42;;;;;;;13.07;10.37;;;7.40;99.90;;;;;;5014944;28;20255;-57
2022/02/11 05:19:08;;;;;;;14.53;10.40;;;7.40;99.90;;;;;;5011522;28;20231;-56
2022/02/11 05:21:34;;;;;;;11.00;9.83;;;7.30;99.90;;;;;;4997712;28;20185;-56
2022/02/11 05:23:59;;;;;;;12.90;10.47;;;7.30;99.90;;;;;;5013847;28;20219;-57
2022/02/11 05:26:25;;;;;;;14.43;11.00;;;7.20;99.90;;;;;;5006678;28;20624;-58
2022/02/11 05:28:50;;;;;;;14.27;10.77;;;7.10;99.90;;;;;;4996857;28;20263;-55
2022/02/11 05:31:16;;;;;;;12.40;9.93;;;7.10;99.90;;;;;;5015201;28;20168;-56
2022/02/11 05:33:42;;;;;;;14.70;11.03;;;7.00;99.90;;;;;;5013790;28;20172;-59
2022/02/11 05:36:08;;;;;;;17.07;11.07;;;7.00;99.90;;;;;;5013732;28;20282;-58
2022/02/11 05:38:34;;;;;;;13.37;10.33;;;6.90;99.90;;;;;;5013519;28;20260;-58
2022/02/11 05:40:59;;;;;;;13.33;10.63;;;6.90;99.90;;;;;;5014912;28;20264;-56
2022/02/11 05:43:25;;;;;;;14.60;10.37;;;6.80;99.90;;;;;;5007036;28;20176;-53
2022/02/11 05:45:51;;;;;;;13.43;10.50;;;6.70;99.90;;;;;;4996584;28;20239;-56
2022/02/11 05:48:16;;;;;;;18.50;12.50;;;6.80;99.90;;;;;;5013600;28;20184;-58
2022/02/11 05:50:42;;;;;;;16.13;11.97;;;6.70;99.90;;;;;;5013220;28;20276;-54
2022/02/11 05:53:09;;;;;;;13.57;11.67;;;6.70;99.90;;;;;;5013746;28;20176;-58
2022/02/11 05:55:35;;;;;;;15.47;12.00;;;6.60;99.90;;;;;;5013300;28;20355;-59
2022/02/11 05:58:01;;;;;;;15.63;11.57;;;6.60;99.90;;;;;;5013232;28;20675;-56
2022/02/11 06:00:27;;;;;;;14.70;11.17;;;7.00;99.90;;;;;;5013168;28;20546;-60
2022/02/11 06:02:52;;;;;;;17.20;12.00;;;6.90;99.90;;;;;;5013552;28;20222;-57
2022/02/11 06:05:19;;;;;;;15.60;12.80;;;7.10;99.90;;;;;;5013055;28;20208;-61
2022/02/11 06:07:45;;;;;;;13.23;11.80;;;7.20;99.90;;;;;;5014521;28;20181;-59
2022/02/11 06:10:10;;;;;;;14.93;11.20;;;7.30;99.90;;;;;;5013135;28;20172;-60
2022/02/11 06:12:36;;;;;;;14.93;11.60;;;7.20;99.90;;;;;;5013172;28;20173;-55
2022/02/11 06:15:02;;;;;;;13.80;11.70;;;7.00;99.90;;;;;;5012894;28;20255;-56
2022/02/11 06:17:27;;;;;;;14.60;11.93;;;6.60;99.90;;;;;;5006640;28;20195;-58
2022/02/11 06:19:53;;;;;;;14.47;11.97;;;6.40;99.90;;;;;;5012783;28;20176;-59
2022/02/11 06:22:19;;;;;;;14.50;11.60;;;6.30;99.90;;;;;;5012724;28;20185;-59
2022/02/11 06:24:44;;;;;;;13.23;11.30;;;6.30;99.90;;;;;;4980579;28;20235;-56
2022/02/11 06:27:10;;;;;;;13.30;11.03;;;6.40;99.90;;;;;;5015364;28;20580;-59
2022/02/11 06:29:36;;;;;;;14.47;11.63;;;6.60;99.90;;;;;;5000976;28;20171;-57
2022/02/11 06:32:03;;;;;;;13.23;11.23;;;6.70;99.90;;;;;;5029973;28;20171;-58
2022/02/11 06:34:29;;;;;;;13.47;11.57;;;6.80;99.90;;;;;;5011226;28;20617;-57
2022/02/11 06:36:54;;;;;;;13.93;11.10;;;6.80;99.90;;;;;;5008543;28;20180;-57
2022/02/11 06:39:21;;;;;;;12.77;11.20;;;6.90;99.90;;;;;;5013077;28;20188;-57
2022/02/11 06:41:47;;;;;;;13.47;11.00;;;6.90;99.90;;;;;;5018359;28;20652;-58
2022/02/11 06:44:13;;;;;;;15.33;11.07;;;6.80;99.90;;;;;;5016007;28;20215;-56
2022/02/11 06:46:38;;;;;;;13.87;10.77;;;6.60;99.90;;;;;;5022669;28;20187;-58
2022/02/11 06:49:04;;;;;;;13.50;11.53;;;6.60;99.90;;;;;;5031755;28;20820;-59
2022/02/11 06:51:29;;;;;;;16.60;11.07;;;6.40;99.90;;;;;;5012805;28;20172;-58
2022/02/11 06:53:55;;;;;;;14.00;11.07;;;6.30;99.90;;;;;;5008988;28;20192;-59
2022/02/11 06:56:20;;;;;;;16.67;11.43;;;6.30;99.90;;;;;;5009609;28;20176;-57
2022/02/11 06:58:47;;;;;;;13.57;11.80;;;6.30;99.90;;;;;;5032613;28;20183;-58
2022/02/11 07:01:13;;;;;;;14.77;11.63;;;6.20;99.90;;;;;;5022701;28;20648;-57
2022/02/11 07:03:39;;;;;;;14.37;12.47;;;6.10;99.90;;;;;;5015421;28;20748;-56
2022/02/11 07:06:04;;;;;;;14.63;13.00;;;6.10;99.90;;;;;;5031887;28;20286;-53
2022/02/11 07:08:30;;;;;;;15.13;11.83;;;6.10;99.90;;;;;;5012654;28;20178;-59
2022/02/11 07:10:57;;;;;;;14.40;12.60;;;6.10;99.90;;;;;;5013444;28;20252;-59
2022/02/11 07:13:23;;;;;;;15.57;12.50;;;6.00;99.90;;;;;;5027530;28;20172;-55
2022/02/11 07:15:49;;;;;;;15.17;11.50;;;6.00;99.90;;;;;;5032721;28;20653;-59
2022/02/11 07:18:14;;;;;;;15.53;11.93;;;6.00;99.90;;;;;;5032643;28;20179;-58
2022/02/11 07:20:40;;;;;;;15.37;12.23;;;6.00;99.90;;;;;;5033019;28;20226;-58
2022/02/11 07:23:07;;;;;;;13.00;11.10;;;6.10;99.90;;;;;;5032696;28;20176;-58
2022/02/11 07:25:32;;;;;;;14.13;11.23;;;6.10;99.90;;;;;;5012885;28;20728;-60
2022/02/11 07:27:58;;;;;;;13.07;11.03;;;6.00;99.90;;;;;;5006444;28;20260;-59
2022/02/11 07:30:24;;;;;;;14.97;12.20;;;6.00;99.90;;;;;;5004662;28;20181;-59
2022/02/11 07:32:51;;;;;;;14.83;11.50;;;6.00;99.90;;;;;;5014553;28;20187;-58
2022/02/11 07:35:18;;;;;;;14.07;11.27;;;5.90;99.90;;;;;;4993161;28;20247;-60
2022/02/11 07:37:44;;;;;;;14.30;11.13;;;5.80;99.90;;;;;;4993041;28;20696;-55
2022/02/11 07:40:12;;;;;;;13.17;10.93;;;5.70;99.90;;;;;;4993393;28;20185;-59
2022/02/11 07:42:39;;;;;;;15.23;11.73;;;5.60;99.90;;;;;;5005351;28;20199;-60
2022/02/11 07:45:05;;;;;;;15.17;12.37;;;5.50;99.90;;;;;;5012291;28;20197;-59
2022/02/11 07:47:30;;;;;;;14.10;11.93;;;5.50;99.90;;;;;;5012932;28;20553;-57
2022/02/11 07:49:56;;;;;;;15.23;11.40;;;5.50;99.90;;;;;;5012705;28;20172;-59
2022/02/11 07:52:22;;;;;;;15.30;12.80;;;5.50;99.90;;;;;;5012482;28;20166;-60
2022/02/11 07:54:48;;;;;;;14.57;12.33;;;5.60;99.90;;;;;;5012593;28;20188;-53
2022/02/11 07:57:13;;;;;;;15.50;11.57;;;5.60;99.90;;;;;;5009257;28;20200;-57
2022/02/11 07:59:39;;;;;;;14.03;11.57;;;5.70;99.90;;;;;;5011575;28;20184;-55
2022/02/11 08:02:04;;;;;;;13.97;11.67;;;5.60;99.90;;;;;;5011870;28;20184;-53
2022/02/11 08:04:32;;;;;;;18.03;11.70;;;5.60;99.90;;;;;;5012067;28;20212;-53
2022/02/11 08:06:57;;;;;;;14.37;10.83;;;5.50;99.90;;;;;;5011814;28;20188;-55
2022/02/11 08:09:23;;;;;;;12.17;10.27;;;5.50;99.90;;;;;;5012100;28;20181;-58
2022/02/11 08:11:49;;;;;;;12.23;9.83;;;5.60;99.90;;;;;;5012430;28;20172;-60
2022/02/11 08:14:14;;;;;;;13.90;10.20;;;5.50;99.90;;;;;;5011731;28;20203;-59
2022/02/11 08:16:40;;;;;;;11.67;9.67;;;5.40;99.90;;;;;;5011964;28;20207;-58
2022/02/11 08:19:06;;;;;;;11.30;9.00;;;5.40;99.90;;;;;;5011712;28;20199;-59
2022/02/11 08:21:33;;;;;;;11.60;8.73;;;5.30;99.90;;;;;;5012219;28;20175;-59
2022/02/11 08:23:59;;;;;;;11.43;8.50;;;5.30;99.90;;;;;;5012063;28;20183;-55
2022/02/11 08:26:29;;;;;;;9.67;7.93;;;5.20;99.90;;;;;;5012043;28;20183;-59
2022/02/11 08:28:54;;;;;;;8.57;7.33;;;5.30;99.90;;;;;;5011742;28;20195;-59
2022/02/11 08:31:20;;;;;;;8.40;6.83;;;5.30;99.90;;;;;;5011624;28;20638;-56
2022/02/11 08:33:49;;;;;;;8.07;6.67;;;5.20;99.90;;;;;;5011697;28;20244;-57
2022/02/11 08:36:15;;;;;;;7.63;6.80;;;5.20;99.90;;;;;;5011916;28;20160;-55
2022/02/11 08:38:41;;;;;;;9.43;7.00;;;5.10;99.90;;;;;;5011031;28;20201;-56
2022/02/11 08:41:07;;;;;;;10.30;7.80;;;5.10;99.90;;;;;;5011926;28;20200;-59
2022/02/11 08:43:33;;;;;;;7.97;6.33;;;5.10;99.90;;;;;;5011917;28;20548;-57
2022/02/11 08:46:00;;;;;;;7.63;6.00;;;5.10;99.90;;;;;;5011507;28;20216;-59
2022/02/11 08:48:25;;;;;;;7.07;5.50;;;5.10;99.90;;;;;;5011736;28;20169;-56
2022/02/11 08:50:51;;;;;;;7.47;5.87;;;5.10;99.90;;;;;;5011539;28;20188;-58
2022/02/11 08:53:17;;;;;;;6.93;5.67;;;5.00;99.90;;;;;;5012090;28;20215;-59
2022/02/11 08:55:43;;;;;;;5.90;5.30;;;4.90;99.90;;;;;;5011336;28;20196;-59
2022/02/11 08:58:09;;;;;;;8.63;6.27;;;4.90;99.90;;;;;;5011638;28;20180;-60
2022/02/11 09:00:35;;;;;;;6.07;5.17;;;5.00;99.90;;;;;;5011570;28;20177;-61
2022/02/11 09:03:00;;;;;;;6.53;5.67;;;5.00;99.90;;;;;;5011970;28;20177;-60
2022/02/11 09:05:27;;;;;;;6.93;5.57;;;5.00;99.90;;;;;;5010875;28;20212;-57
2022/02/11 09:07:58;;;;;;;6.87;5.30;;;4.90;99.90;;;;;;5011396;28;20263;-59
2022/02/11 09:10:28;;;;;;;5.73;5.00;;;4.90;99.90;;;;;;5011489;28;20173;-57
2022/02/11 09:12:55;;;;;;;5.97;4.60;;;5.00;99.90;;;;;;5011520;28;20172;-60
2022/02/11 09:15:21;;;;;;;4.97;4.20;;;5.00;99.90;;;;;;5011194;28;20200;-58
2022/02/11 09:17:48;;;;;;;4.10;3.70;;;4.90;99.90;;;;;;5010334;28;20203;-59
2022/02/11 09:20:14;;;;;;;6.03;3.50;;;4.90;99.90;;;;;;5011698;28;20189;-59
2022/02/11 09:22:39;;;;;;;3.00;2.80;;;4.90;99.90;;;;;;5011647;28;20194;-60
2022/02/11 09:25:06;;;;;;;6.10;2.80;;;4.90;99.90;;;;;;5011047;28;20220;-57
2022/02/11 09:27:31;;;;;;;2.00;1.90;;;4.80;99.90;;;;;;5010353;28;20606;-59
2022/02/11 09:29:57;;;;;;;2.33;2.13;;;4.80;99.90;;;;;;5011519;28;20176;-59
2022/02/11 09:32:22;;;;;;;2.27;2.00;;;4.70;99.90;;;;;;5011646;28;20260;-58
2022/02/11 09:34:48;;;;;;;1.70;1.60;;;4.70;99.90;;;;;;5011434;28;20231;-59
2022/02/11 09:37:14;;;;;;;1.83;1.73;;;4.60;99.90;;;;;;5011483;28;20195;-59
2022/02/11 09:39:40;;;;;;;1.80;1.70;;;4.70;99.90;;;;;;5010981;28;20527;-60
2022/02/11 09:42:06;;;;;;;1.87;1.70;;;4.70;99.90;;;;;;5011440;28;20259;-59
2022/02/11 09:44:32;;;;;;;1.60;1.50;;;4.90;99.90;;;;;;5009933;28;20253;-58
2022/02/11 09:46:59;;;;;;;1.63;1.53;;;5.10;99.90;;;;;;5011448;28;20271;-58
2022/02/11 09:49:25;;;;;;;1.67;1.50;;;5.20;99.90;;;;;;5012581;28;20172;-59
2022/02/11 09:51:55;;;;;;;1.57;1.47;;;5.20;99.90;;;;;;5014936;28;20543;-60
2022/02/11 09:54:21;;;;;;;1.33;1.33;;;5.00;99.90;;;;;;5014420;28;20665;-58
2022/02/11 09:56:50;;;;;;;1.17;1.07;;;4.90;99.90;;;;;;5014967;28;20176;-54
2022/02/11 09:59:15;;;;;;;1.20;1.13;;;5.00;99.90;;;;;;5014755;28;20183;-58
2022/02/11 10:01:42;;;;;;;1.13;1.10;;;5.20;99.90;;;;;;5014539;28;20181;-55
2022/02/11 10:04:12;;;;;;;1.20;1.10;;;5.40;99.90;;;;;;5014710;28;20343;-53
2022/02/11 10:06:39;;;;;;;1.37;1.27;;;5.40;99.90;;;;;;5014389;28;20242;-55
2022/02/11 10:09:05;;;;;;;5.90;4.27;;;5.20;99.90;;;;;;5015593;28;20173;-56
2022/02/11 10:11:32;;;;;;;2.40;2.20;;;5.30;99.90;;;;;;5014500;28;20183;-52
2022/02/11 10:14:35;;;;;;;4.10;3.40;;;5.60;99.90;;;;;;5013759;28;20172;-59
2022/02/11 10:17:09;;;;;;;2.90;2.70;;;5.70;99.90;;;;;;5014295;28;20172;-59
2022/02/11 10:19:47;;;;;;;1.27;1.10;;;6.50;99.90;;;;;;5014524;28;20234;-56
2022/02/11 10:22:17;;;;;;;1.30;1.20;;;7.60;99.90;;;;;;5012066;28;20175;-55
2022/02/11 10:24:44;;;;;;;1.27;1.10;;;7.20;99.90;;;;;;5010956;28;20267;-58
2022/02/11 10:27:17;;;;;;;1.80;1.23;;;6.90;99.90;;;;;;4996068;28;20191;-58
2022/02/11 10:29:43;;;;;;;1.30;1.20;;;6.40;99.90;;;;;;5011774;28;20168;-58
2022/02/11 10:32:09;;;;;;;1.97;1.50;;;6.00;99.90;;;;;;5013979;28;20537;-54
2022/02/11 10:34:34;;;;;;;1.43;1.33;;;5.90;99.90;;;;;;5013403;28;20678;-53
2022/02/11 10:37:07;;;;;;;1.77;1.17;;;6.10;99.90;;;;;;5014078;28;20184;-54
2022/02/11 10:39:35;;;;;;;1.30;1.20;;;6.90;99.90;;;;;;5012982;28;20157;-57
2022/02/11 10:42:10;;;;;;;1.40;1.30;;;7.40;99.90;;;;;;5013308;28;20184;-51
2022/02/11 10:44:39;;;;;;;1.50;1.40;;;6.60;99.90;;;;;;5012619;28;20206;-54
2022/02/11 10:47:11;;;;;;;1.30;1.20;;;6.20;99.90;;;;;;5010507;28;20173;-58
2022/02/11 10:49:37;;;;;;;2.20;1.53;;;6.00;99.90;;;;;;5012349;28;20275;-53
2022/02/11 10:52:24;;;;;;;3.27;1.40;;;6.10;99.90;;;;;;5013859;28;20665;-54
2022/02/11 10:54:54;;;;;;;1.93;1.30;;;6.10;99.90;;;;;;5012339;28;20215;-54
2022/02/11 10:57:31;;;;;;;2.13;1.50;;;5.90;99.90;;;;;;5001524;28;20188;-57
2022/02/11 10:59:58;;;;;;;1.47;1.37;;;5.80;99.90;;;;;;4994673;28;20248;-62
2022/02/11 11:02:24;;;;;;;1.50;1.40;;;5.40;99.90;;;;;;5003171;28;20180;-53
2022/02/11 11:04:53;;;;;;;1.60;1.50;;;5.20;99.90;;;;;;5001113;28;20193;-56
2022/02/11 11:07:25;;;;;;;2.47;1.70;;;5.00;99.90;;;;;;4994875;28;20188;-61
2022/02/11 11:09:53;;;;;;;2.03;1.80;;;5.10;99.90;;;;;;4991831;28;20609;-58
2022/02/11 11:12:22;;;;;;;3.37;1.80;;;5.20;99.90;;;;;;4992316;28;20189;-55
2022/02/11 11:14:51;;;;;;;1.90;1.77;;;5.10;99.90;;;;;;4991088;28;20205;-55
2022/02/11 11:17:19;;;;;;;3.27;2.23;;;4.90;99.90;;;;;;4995786;28;20670;-56
2022/02/11 11:19:46;;;;;;;1.97;1.87;;;4.90;99.90;;;;;;5011392;28;20179;-59
2022/02/11 11:22:15;;;;;;;2.10;1.90;;;5.00;99.90;;;;;;4998299;28;20283;-57
2022/02/11 11:24:47;;;;;;;1.97;1.83;;;5.10;99.90;;;;;;5011325;28;20208;-56
2022/02/11 11:27:33;;;;;;;2.77;1.80;;;5.00;99.90;;;;;;5011469;28;20250;-57
2022/02/11 11:30:30;;;;;;;2.60;1.60;;;4.80;99.90;;;;;;5000318;28;20185;-56
2022/02/11 11:33:04;;;;;;;2.93;1.80;;;4.70;99.90;;;;;;5001719;28;20642;-56
2022/02/11 11:35:36;;;;;;;2.67;1.87;;;4.70;99.90;;;;;;4999416;28;20223;-60
2022/02/11 11:38:17;;;;;;;1.63;1.53;;;5.10;99.90;;;;;;5006427;28;20831;-52
2022/02/11 11:41:02;;;;;;;1.80;1.37;;;6.10;99.90;;;;;;5006142;28;20634;-57
2022/02/11 11:43:33;;;;;;;1.87;1.60;;;7.20;99.90;;;;;;4997293;28;20702;-54
2022/02/11 11:46:16;;;;;;;1.67;1.43;;;8.90;99.90;;;;;;4990272;28;20213;-57
2022/02/11 11:49:06;;;;;;;1.60;1.20;;;10.50;99.90;;;;;;4991275;28;20176;-53
2022/02/11 11:51:35;;;;;;;2.17;1.50;;;11.10;99.90;;;;;;4991109;28;20532;-61
2022/02/11 11:54:16;;;;;;;1.77;1.10;;;12.90;99.90;;;;;;4991724;28;20193;-55
2022/02/11 11:56:43;;;;;;;1.30;1.10;;;13.00;96.60;;;;;;4991261;28;20199;-56
2022/02/11 11:59:19;;;;;;;2.30;1.07;;;12.60;98.30;;;;;;4991009;28;20272;-60
2022/02/11 12:01:58;;;;;;;2.00;1.27;;;12.80;95.90;;;;;;4991366;28;20245;-59
2022/02/11 12:04:25;;;;;;;1.50;0.90;;;13.40;96.80;;;;;;4990652;28;20193;-58
2022/02/11 12:06:56;;;;;;;2.00;1.03;;;15.40;96.20;;;;;;4956025;28;1056794;-57
2022/02/11 12:09:24;;;;;;;1.77;1.10;;;16.40;90.80;;;;;;4992194;28;20173;-52
2022/02/11 12:12:05;;;;;;;1.13;1.00;;;15.80;93.80;;;;;;4992390;28;20228;-54
2022/02/11 12:14:32;;;;;;;1.20;1.00;;;15.20;90.90;;;;;;4992050;28;20205;-51
2022/02/11 12:17:00;;;;;;;1.17;1.07;;;13.40;93.20;;;;;;4993723;28;20177;-56
2022/02/11 12:19:27;;;;;;;1.47;1.23;;;12.30;94.60;;;;;;5011837;28;20315;-57
2022/02/11 12:21:52;;;;;;;1.60;1.10;;;12.60;94.80;;;;;;5012305;28;20173;-53
2022/02/11 12:27:22;;;;;;;1.77;1.27;;;12.50;94.30;;;;;;5012286;28;20171;-56
2022/02/11 12:29:49;;;;;;;3.00;1.43;;;10.90;94.50;;;;;;5011582;28;20176;-57
2022/02/11 12:32:25;;;;;;;2.70;1.53;;;8.90;97.80;;;;;;5011820;28;20589;-54
2022/02/11 12:34:57;;;;;;;2.70;1.77;;;7.90;99.90;;;;;;5011704;28;20196;-57
2022/02/11 12:37:25;;;;;;;2.33;1.37;;;7.60;99.90;;;;;;5012126;28;20612;-50
2022/02/11 12:40:04;;;;;;;4.00;1.63;;;7.20;99.90;;;;;;5011817;28;20172;-53
2022/02/11 12:42:30;;;;;;;2.77;1.50;;;7.00;99.90;;;;;;5010872;28;20188;-55
2022/02/11 12:44:56;;;;;;;2.07;1.50;;;6.90;99.90;;;;;;5010229;28;20208;-56
2022/02/11 12:47:22;;;;;;;1.70;1.50;;;6.60;99.90;;;;;;5010058;28;20252;-55
2022/02/11 12:49:51;;;;;;;2.90;2.03;;;6.50;99.90;;;;;;5009935;28;20177;-56
2022/02/11 12:52:26;;;;;;;3.90;1.60;;;6.30;99.90;;;;;;5010405;28;20173;-58
2022/02/11 12:55:10;;;;;;;36.20;18.20;;;6.10;99.90;;;;;;5009851;28;20199;-52
2022/02/11 12:57:57;;;;;;;3.40;1.90;;;5.90;99.90;;;;;;5011122;28;20614;-53
2022/02/11 13:00:29;;;;;;;3.70;2.13;;;5.80;99.90;;;;;;5011652;28;20179;-59
2022/02/11 13:02:58;;;;;;;2.13;1.53;;;5.80;99.90;;;;;;5011866;28;20271;-52
2022/02/11 13:05:26;;;;;;;6.83;1.97;;;5.80;99.90;;;;;;5011406;28;20613;-55
2022/02/11 13:07:54;;;;;;;7.17;5.23;;;5.70;99.90;;;;;;5011915;28;20173;-52
2022/02/11 13:10:34;;;;;;;14.60;9.17;;;5.60;99.90;;;;;;5011641;28;20263;-54
2022/02/11 13:13:02;;;;;;;18.77;10.03;;;5.50;99.90;;;;;;5011632;28;20165;-57
2022/02/11 13:15:31;;;;;;;27.60;21.10;;;5.50;99.90;;;;;;5010965;28;20658;-56
2022/02/11 13:18:12;;;;;;;2.27;1.83;;;5.60;99.90;;;;;;5011391;28;20227;-57
2022/02/11 13:20:44;;;;;;;2.47;1.50;;;5.70;99.90;;;;;;5011508;28;20181;-54
2022/02/11 13:23:14;;;;;;;2.83;1.80;;;5.60;99.90;;;;;;5011471;28;20177;-58
2022/02/11 13:25:42;;;;;;;2.63;1.63;;;5.50;99.90;;;;;;5015058;28;20204;-57
2022/02/11 13:28:12;;;;;;;3.63;1.80;;;5.50;99.90;;;;;;5014080;28;20553;-54
2022/02/11 13:30:40;;;;;;;3.53;1.83;;;5.60;99.90;;;;;;5015377;28;20633;-54
2022/02/11 13:33:21;;;;;;;2.77;1.80;;;5.60;99.90;;;;;;5015311;28;20172;-59
2022/02/11 13:35:48;;;;;;;3.27;1.50;;;5.40;99.90;;;;;;5015472;28;20251;-60
2022/02/11 13:38:24;;;;;;;4.63;1.80;;;5.40;99.90;;;;;;5015398;28;20541;-53
2022/02/11 13:41:12;;;;;;;5.07;2.00;;;5.40;99.90;;;;;;5015274;28;20183;-53
2022/02/11 13:43:54;;;;;;;4.57;1.90;;;5.40;99.90;;;;;;5015231;28;20181;-60
2022/02/11 13:46:25;;;;;;;3.10;1.90;;;5.40;99.90;;;;;;5014938;28;20200;-53
2022/02/11 13:48:56;;;;;;;2.60;1.57;;;5.40;99.90;;;;;;5015143;28;20515;-59
2022/02/11 13:51:22;;;;;;;1.83;1.57;;;5.50;99.90;;;;;;5015055;28;20272;-54
2022/02/11 13:53:52;;;;;;;3.37;1.97;;;5.50;99.90;;;;;;5015085;28;20179;-57
2022/02/11 13:56:25;;;;;;;5.10;1.83;;;5.40;99.90;;;;;;5014796;28;20374;-60
2022/02/11 13:59:11;;;;;;;4.27;1.80;;;5.30;99.90;;;;;;5014803;28;20203;-61
2022/02/11 14:01:38;;;;;;;4.73;1.47;;;5.30;99.90;;;;;;5014968;28;20200;-57
2022/02/11 14:04:08;;;;;;;2.83;1.80;;;5.10;99.90;;;;;;5014779;28;20528;-53
2022/02/11 14:06:36;;;;;;;3.30;1.93;;;4.90;99.90;;;;;;5010125;28;20201;-56
2022/02/11 14:09:07;;;;;;;3.30;1.80;;;4.90;99.90;;;;;;4994824;28;20173;-57
2022/02/11 14:11:35;;;;;;;3.40;2.00;;;4.90;99.90;;;;;;5003207;28;20165;-60
2022/02/11 14:14:17;;;;;;;2.00;1.70;;;5.00;99.90;;;;;;5014270;28;20179;-56
2022/02/11 14:16:47;;;;;;;3.00;2.47;;;5.10;99.90;;;;;;5014405;28;20163;-59
2022/02/11 14:19:24;;;;;;;3.20;1.93;;;5.30;99.90;;;;;;5014297;28;20173;-60
2022/02/11 14:21:54;;;;;;;2.70;1.73;;;5.30;99.90;;;;;;5014495;28;20164;-61
2022/02/11 14:24:21;;;;;;;3.93;1.90;;;5.20;99.90;;;;;;5013948;28;20316;-59
2022/02/11 14:26:47;;;;;;;2.23;1.77;;;5.30;99.90;;;;;;4996487;28;20180;-63
2022/02/11 14:29:15;;;;;;;4.00;1.90;;;5.20;99.90;;;;;;5013707;28;20250;-60
2022/02/11 14:31:41;;;;;;;5.20;2.40;;;5.20;99.90;;;;;;5014129;28;20199;-61
2022/02/11 14:34:08;;;;;;;4.07;2.43;;;5.20;99.90;;;;;;5014054;28;20918;-60
2022/02/11 14:36:35;;;;;;;2.87;1.53;;;5.20;99.90;;;;;;5012694;28;20244;-53
2022/02/11 14:39:00;;;;;;;3.10;1.83;;;5.20;99.90;;;;;;5013780;28;20172;-59
2022/02/11 14:44:11;;;;;;;2.97;1.90;;;5.20;99.90;;;;;;5014169;28;20283;-62
2022/02/11 14:46:37;;;;;;;1.83;1.50;;;5.30;99.90;;;;;;5013716;28;20259;-60
2022/02/11 14:49:04;;;;;;;2.27;1.40;;;5.40;99.90;;;;;;5013692;28;20545;-57
2022/02/11 14:51:31;;;;;;;2.30;1.70;;;5.40;99.90;;;;;;5013712;28;20252;-61
2022/02/11 14:53:56;;;;;;;2.50;1.83;;;5.50;99.90;;;;;;5013583;28;20176;-59
2022/02/11 14:56:22;;;;;;;3.83;2.07;;;5.50;99.90;;;;;;5013371;28;20231;-61
2022/02/11 14:58:47;;;;;;;2.67;1.63;;;5.30;99.90;;;;;;5013619;28;20730;-60
2022/02/11 15:01:13;;;;;;;2.60;1.33;;;5.30;99.90;;;;;;5013493;28;20641;-61
2022/02/11 15:03:39;;;;;;;2.80;1.90;;;5.30;99.90;;;;;;5013514;28;20173;-61
2022/02/11 15:06:04;;;;;;;3.80;1.70;;;5.20;99.90;;;;;;5012906;28;20215;-58
2022/02/11 15:08:30;;;;;;;3.03;1.63;;;5.20;99.90;;;;;;5013094;28;20242;-60
2022/02/11 15:10:55;;;;;;;3.30;1.27;;;5.10;99.90;;;;;;5012982;28;20184;-62
2022/02/11 15:13:21;;;;;;;2.60;1.67;;;5.00;99.90;;;;;;5012521;28;20204;-63
2022/02/11 15:15:46;;;;;;;2.63;1.50;;;5.00;99.90;;;;;;5013085;28;20200;-61
2022/02/11 15:18:12;;;;;;;2.90;1.50;;;5.00;99.90;;;;;;5013236;28;20188;-60
2022/02/11 15:20:39;;;;;;;2.07;1.20;;;5.10;99.90;;;;;;5013189;28;20266;-62
2022/02/11 15:23:05;;;;;;;3.43;1.50;;;5.10;99.90;;;;;;5013293;28;20168;-64
2022/02/11 15:25:30;;;;;;;3.07;1.50;;;5.00;99.90;;;;;;5012524;28;20258;-60
2022/02/11 15:27:56;;;;;;;2.93;1.40;;;5.00;99.90;;;;;;5012917;28;20260;-61
2022/02/11 15:30:23;;;;;;;3.40;1.20;;;5.00;99.90;;;;;;5012997;28;20180;-60
2022/02/11 15:32:48;;;;;;;2.70;1.70;;;5.00;99.90;;;;;;5013077;28;20183;-60
2022/02/11 15:35:14;;;;;;;2.00;1.40;;;5.00;99.90;;;;;;5012746;28;20282;-61
2022/02/11 15:37:40;;;;;;;4.57;1.60;;;5.00;99.90;;;;;;5012873;28;20215;-60
2022/02/11 15:40:06;;;;;;;3.63;1.70;;;5.00;99.90;;;;;;5012638;28;20168;-57
2022/02/11 15:42:33;;;;;;;2.27;1.40;;;4.90;99.90;;;;;;5012704;28;20177;-53
2022/02/11 15:44:59;;;;;;;5.90;3.23;;;4.90;99.90;;;;;;4995181;28;20216;-52
2022/02/11 15:47:25;;;;;;;4.03;2.20;;;5.00;99.90;;;;;;5012302;28;20247;-53
2022/02/11 15:49:52;;;;;;;2.43;1.57;;;4.90;99.90;;;;;;5012509;28;20164;-56
2022/02/11 15:52:18;;;;;;;2.00;1.40;;;4.90;99.90;;;;;;5012605;28;20227;-59
2022/02/11 15:54:43;;;;;;;1.77;1.10;;;4.90;99.90;;;;;;5012287;28;20227;-56
2022/02/11 15:57:09;;;;;;;2.60;1.30;;;4.80;99.90;;;;;;5012873;28;20215;-59
2022/02/11 15:59:34;;;;;;;1.70;1.43;;;4.70;99.90;;;;;;5012428;28;20188;-61
2022/02/11 16:02:00;;;;;;;3.13;1.77;;;4.70;99.90;;;;;;5012654;28;20173;-54
2022/02/11 16:04:26;;;;;;;2.33;1.50;;;4.60;99.90;;;;;;5012032;28;20231;-57
2022/02/11 16:06:52;;;;;;;2.07;1.40;;;4.60;99.90;;;;;;4994599;28;20199;-53
2022/02/11 16:09:17;;;;;;;3.83;1.50;;;4.60;99.90;;;;;;5011715;28;20176;-53
2022/02/11 16:11:43;;;;;;;2.77;1.53;;;4.50;99.90;;;;;;5013437;28;20176;-56
2022/02/11 16:14:10;;;;;;;1.90;1.50;;;4.50;99.90;;;;;;5011779;28;20226;-56
2022/02/11 16:16:37;;;;;;;2.53;1.60;;;4.40;99.90;;;;;;5012194;28;20172;-57
2022/02/11 16:19:02;;;;;;;1.70;1.47;;;4.40;99.90;;;;;;5012109;28;20227;-54
2022/02/11 16:21:28;;;;;;;4.77;1.40;;;4.40;99.90;;;;;;5011982;28;20585;-54
2022/02/11 16:23:53;;;;;;;3.53;1.77;;;4.30;99.90;;;;;;5010976;28;20176;-56
2022/02/11 16:26:19;;;;;;;2.53;1.00;;;4.40;99.90;;;;;;5011878;28;20208;-54
2022/02/11 16:28:45;;;;;;;3.20;1.27;;;4.40;99.90;;;;;;5012180;28;20519;-54
2022/02/11 16:31:19;;;;;;;1.60;1.30;;;4.40;99.90;;;;;;5012020;28;20302;-57
2022/02/11 16:33:46;;;;;;;2.13;1.43;;;4.40;99.90;;;;;;5012167;28;20195;-53
2022/02/11 16:36:12;;;;;;;3.33;1.50;;;4.40;99.90;;;;;;5011896;28;20228;-55
2022/02/11 16:38:42;;;;;;;5.27;1.90;;;4.40;99.90;;;;;;5011814;28;20685;-53
2022/02/11 16:41:08;;;;;;;2.47;1.40;;;4.40;99.90;;;;;;5012031;28;20208;-54
2022/02/11 16:43:34;;;;;;;3.03;1.50;;;4.40;99.90;;;;;;5012004;28;20223;-57
2022/02/11 16:45:59;;;;;;;3.53;1.20;;;4.30;99.90;;;;;;5011695;28;20280;-58
2022/02/11 16:48:25;;;;;;;2.63;1.33;;;4.40;99.90;;;;;;5011723;28;20164;-55
2022/02/11 16:50:51;;;;;;;2.63;1.37;;;4.40;99.90;;;;;;5011825;28;20646;-59